sensor_id;sensor_type;location;lat;lon;timestamp;temperature;humidity
14170;DHT22;63889;50.596;8.690;2023-12-20T00:00:55;6.60;99.90
14170;DHT22;63889;50.596;8.690;2023-12-20T00:03:20;6.70;99.90
14170;DHT22;63889;50.596;8.690;2023-12-20T00:05:47;6.60;99.90
14170;DHT22;63889;50.596;8.690;2023-12-20T00:08:12;6.60;99.90
14170;DHT22;63889;50.596;8.690;2023-12-20T00:10:38;6.60;99.90
14170;DHT22;63889;50.596;8.690;2023-12-20T00:13:04;6.60;99.90
14170;DHT22;63889;50.596;8.690;2023-12-20T00:15:29;6.60;99.90
14170;DHT22;63889;50.596;8.690;2023-12-20T00:17:55;6.60;99.90
14170;DHT22;63889;50.596;8.690;2023-12-20T00:20:20;6.60;99.90
14170;DHT22;63889;50.596;8.690;2023-12-20T00:22:46;6.60;99.90
14170;DHT22;63889;50.596;8.690;2023-12-20T00:25:11;6.60;99.90
14170;DHT22;63889;50.596;8.690;2023-12-20T00:27:37;6.60;99.90
14170;DHT22;63889;50.596;8.690;2023-12-20T00:30:03;6.70;99.90
14170;DHT22;63889;50.596;8.690;2023-12-20T00:32:28;6.70;99.90
14170;DHT22;63889;50.596;8.690;2023-12-20T00:34:54;6.70;99.90
14170;DHT22;63889;50.596;8.690;2023-12-20T00:37:19;6.70;99.90
14170;DHT22;63889;50.596;8.690;2023-12-20T00:39:45;6.70;99.90
14170;DHT22;63889;50.596;8.690;2023-12-20T00:42:10;6.70;99.90
14170;DHT22;63889;50.596;8.690;2023-12-20T00:44:36;6.80;99.90
14170;DHT22;63889;50.596;8.690;2023-12-20T00:47:01;6.80;99.90
14170;DHT22;63889;50.596;8.690;2023-12-20T00:49:27;6.70;99.90
14170;DHT22;63889;50.596;8.690;2023-12-20T00:51:52;6.70;99.90
14170;DHT22;63889;50.596;8.690;2023-12-20T00:54:18;6.80;99.90
14170;DHT22;63889;50.596;8.690;2023-12-20T00:56:44;6.80;99.90
14170;DHT22;63889;50.596;8.690;2023-12-20T00:59:09;6.80;99.90
14170;DHT22;63889;50.596;8.690;2023-12-20T01:01:35;6.80;99.90
14170;DHT22;63889;50.596;8.690;2023-12-20T01:04:00;6.80;99.90
14170;DHT22;63889;50.596;8.690;2023-12-20T01:06:26;6.80;99.90
14170;DHT22;63889;50.596;8.690;2023-12-20T01:08:51;6.90;99.90
14170;DHT22;63889;50.596;8.690;2023-12-20T01:11:17;6.90;99.90
14170;DHT22;63889;50.596;8.690;2023-12-20T01:13:42;6.80;99.90
14170;DHT22;63889;50.596;8.690;2023-12-20T01:16:10;6.80;99.90
14170;DHT22;63889;50.596;8.690;2023-12-20T01:18:36;6.80;99.90
14170;DHT22;63889;50.596;8.690;2023-12-20T01:21:05;6.80;99.90
14170;DHT22;63889;50.596;8.690;2023-12-20T01:23:31;6.80;99.90
14170;DHT22;63889;50.596;8.690;2023-12-20T01:25:57;6.80;99.90
14170;DHT22;63889;50.596;8.690;2023-12-20T01:28:25;6.80;99.90
14170;DHT22;63889;50.596;8.690;2023-12-20T01:30:50;6.80;99.90
14170;DHT22;63889;50.596;8.690;2023-12-20T01:33:16;6.80;99.90
14170;DHT22;63889;50.596;8.690;2023-12-20T01:35:42;6.70;99.90
14170;DHT22;63889;50.596;8.690;2023-12-20T01:38:07;6.70;99.90
14170;DHT22;63889;50.596;8.690;2023-12-20T01:40:33;6.80;99.90
14170;DHT22;63889;50.596;8.690;2023-12-20T01:43:06;6.80;99.90
14170;DHT22;63889;50.596;8.690;2023-12-20T01:45:31;6.80;99.90
14170;DHT22;63889;50.596;8.690;2023-12-20T01:47:58;6.80;99.90
14170;DHT22;63889;50.596;8.690;2023-12-20T01:50:25;6.80;99.90
14170;DHT22;63889;50.596;8.690;2023-12-20T01:52:52;6.80;99.90
14170;DHT22;63889;50.596;8.690;2023-12-20T01:55:21;6.90;99.90
14170;DHT22;63889;50.596;8.690;2023-12-20T01:57:47;6.80;99.90
14170;DHT22;63889;50.596;8.690;2023-12-20T02:00:13;6.80;99.90
14170;DHT22;63889;50.596;8.690;2023-12-20T02:02:40;6.80;99.90
14170;DHT22;63889;50.596;8.690;2023-12-20T02:05:06;6.90;99.90
14170;DHT22;63889;50.596;8.690;2023-12-20T02:07:32;6.90;99.90
14170;DHT22;63889;50.596;8.690;2023-12-20T02:09:59;6.90;99.90
14170;DHT22;63889;50.596;8.690;2023-12-20T02:12:25;6.80;99.90
14170;DHT22;63889;50.596;8.690;2023-12-20T02:14:50;6.90;99.90
14170;DHT22;63889;50.596;8.690;2023-12-20T02:17:16;6.80;99.90
14170;DHT22;63889;50.596;8.690;2023-12-20T02:19:42;6.80;99.90
14170;DHT22;63889;50.596;8.690;2023-12-20T02:22:12;6.80;99.90
14170;DHT22;63889;50.596;8.690;2023-12-20T02:24:38;6.80;99.90
14170;DHT22;63889;50.596;8.690;2023-12-20T02:27:05;6.90;99.90
14170;DHT22;63889;50.596;8.690;2023-12-20T02:29:35;6.80;99.90
14170;DHT22;63889;50.596;8.690;2023-12-20T02:32:01;6.80;99.90
14170;DHT22;63889;50.596;8.690;2023-12-20T02:34:27;6.80;99.90
14170;DHT22;63889;50.596;8.690;2023-12-20T02:36:52;6.80;99.90
14170;DHT22;63889;50.596;8.690;2023-12-20T02:39:19;6.80;99.90
14170;DHT22;63889;50.596;8.690;2023-12-20T02:41:44;6.80;99.90
14170;DHT22;63889;50.596;8.690;2023-12-20T02:44:09;6.80;99.90
14170;DHT22;63889;50.596;8.690;2023-12-20T02:46:35;6.90;99.90
14170;DHT22;63889;50.596;8.690;2023-12-20T02:49:00;6.90;99.90
14170;DHT22;63889;50.596;8.690;2023-12-20T02:51:26;6.90;99.90
14170;DHT22;63889;50.596;8.690;2023-12-20T02:53:52;6.90;99.90
14170;DHT22;63889;50.596;8.690;2023-12-20T02:56:17;6.90;99.90
14170;DHT22;63889;50.596;8.690;2023-12-20T02:58:43;6.90;99.90
14170;DHT22;63889;50.596;8.690;2023-12-20T03:03:33;6.90;99.90
14170;DHT22;63889;50.596;8.690;2023-12-20T03:06:00;6.90;99.90
14170;DHT22;63889;50.596;8.690;2023-12-20T03:08:25;6.90;99.90
14170;DHT22;63889;50.596;8.690;2023-12-20T03:10:51;6.90;99.90
14170;DHT22;63889;50.596;8.690;2023-12-20T03:13:16;6.90;99.90
14170;DHT22;63889;50.596;8.690;2023-12-20T03:15:42;7.00;99.90
14170;DHT22;63889;50.596;8.690;2023-12-20T03:18:07;7.00;99.90
14170;DHT22;63889;50.596;8.690;2023-12-20T03:20:33;6.90;99.90
14170;DHT22;63889;50.596;8.690;2023-12-20T03:23:00;6.90;99.90
14170;DHT22;63889;50.596;8.690;2023-12-20T03:25:25;6.90;99.90
14170;DHT22;63889;50.596;8.690;2023-12-20T03:27:52;6.90;99.90
14170;DHT22;63889;50.596;8.690;2023-12-20T03:30:17;6.90;99.90
14170;DHT22;63889;50.596;8.690;2023-12-20T03:32:43;6.90;99.90
14170;DHT22;63889;50.596;8.690;2023-12-20T03:35:09;6.90;99.90
14170;DHT22;63889;50.596;8.690;2023-12-20T03:37:34;6.90;99.90
14170;DHT22;63889;50.596;8.690;2023-12-20T03:40:00;6.80;99.90
14170;DHT22;63889;50.596;8.690;2023-12-20T03:42:26;6.80;99.90
14170;DHT22;63889;50.596;8.690;2023-12-20T03:44:51;6.70;99.90
14170;DHT22;63889;50.596;8.690;2023-12-20T03:47:17;6.70;99.90
14170;DHT22;63889;50.596;8.690;2023-12-20T03:49:42;6.70;99.90
14170;DHT22;63889;50.596;8.690;2023-12-20T03:52:08;6.70;99.90
14170;DHT22;63889;50.596;8.690;2023-12-20T03:54:35;6.60;99.90
14170;DHT22;63889;50.596;8.690;2023-12-20T03:57:01;6.60;99.90
14170;DHT22;63889;50.596;8.690;2023-12-20T03:59:26;6.50;99.90
14170;DHT22;63889;50.596;8.690;2023-12-20T04:01:52;6.60;99.90
14170;DHT22;63889;50.596;8.690;2023-12-20T04:04:18;6.70;99.90
14170;DHT22;63889;50.596;8.690;2023-12-20T04:06:44;6.70;99.90
14170;DHT22;63889;50.596;8.690;2023-12-20T04:09:09;6.80;99.90
14170;DHT22;63889;50.596;8.690;2023-12-20T04:11:36;6.80;99.90
14170;DHT22;63889;50.596;8.690;2023-12-20T04:14:01;6.80;99.90
14170;DHT22;63889;50.596;8.690;2023-12-20T04:16:27;6.80;99.90
14170;DHT22;63889;50.596;8.690;2023-12-20T04:18:52;6.80;99.90
14170;DHT22;63889;50.596;8.690;2023-12-20T04:21:18;6.80;99.90
14170;DHT22;63889;50.596;8.690;2023-12-20T04:23:43;6.80;99.90
14170;DHT22;63889;50.596;8.690;2023-12-20T04:26:09;6.80;99.90
14170;DHT22;63889;50.596;8.690;2023-12-20T04:28:35;6.80;99.90
14170;DHT22;63889;50.596;8.690;2023-12-20T04:31:00;6.70;99.90
14170;DHT22;63889;50.596;8.690;2023-12-20T04:33:26;6.70;99.90
14170;DHT22;63889;50.596;8.690;2023-12-20T04:35:51;6.70;99.90
14170;DHT22;63889;50.596;8.690;2023-12-20T04:38:17;6.60;99.90
14170;DHT22;63889;50.596;8.690;2023-12-20T04:40:43;6.60;99.90
14170;DHT22;63889;50.596;8.690;2023-12-20T04:43:08;6.70;99.90
14170;DHT22;63889;50.596;8.690;2023-12-20T04:45:34;6.80;99.90
14170;DHT22;63889;50.596;8.690;2023-12-20T04:48:00;6.80;99.90
14170;DHT22;63889;50.596;8.690;2023-12-20T04:50:26;6.80;99.90
14170;DHT22;63889;50.596;8.690;2023-12-20T04:52:51;6.70;99.90
14170;DHT22;63889;50.596;8.690;2023-12-20T04:55:17;6.60;99.90
14170;DHT22;63889;50.596;8.690;2023-12-20T04:57:42;6.60;99.90
14170;DHT22;63889;50.596;8.690;2023-12-20T05:00:08;6.70;99.90
14170;DHT22;63889;50.596;8.690;2023-12-20T05:02:35;6.60;99.90
14170;DHT22;63889;50.596;8.690;2023-12-20T05:05:01;6.60;99.90
14170;DHT22;63889;50.596;8.690;2023-12-20T05:07:27;6.50;99.90
14170;DHT22;63889;50.596;8.690;2023-12-20T05:09:52;6.50;99.90
14170;DHT22;63889;50.596;8.690;2023-12-20T05:12:18;6.40;99.90
14170;DHT22;63889;50.596;8.690;2023-12-20T05:14:44;6.50;99.90
14170;DHT22;63889;50.596;8.690;2023-12-20T05:17:09;6.50;99.90
14170;DHT22;63889;50.596;8.690;2023-12-20T05:19:35;6.60;99.90
14170;DHT22;63889;50.596;8.690;2023-12-20T05:22:01;6.50;99.90
14170;DHT22;63889;50.596;8.690;2023-12-20T05:24:27;6.60;99.90
14170;DHT22;63889;50.596;8.690;2023-12-20T05:26:53;6.60;99.90
14170;DHT22;63889;50.596;8.690;2023-12-20T05:29:19;6.50;99.90
14170;DHT22;63889;50.596;8.690;2023-12-20T05:31:44;6.40;99.90
14170;DHT22;63889;50.596;8.690;2023-12-20T05:34:10;6.20;99.90
14170;DHT22;63889;50.596;8.690;2023-12-20T05:36:36;6.10;99.90
14170;DHT22;63889;50.596;8.690;2023-12-20T05:39:02;6.20;99.90
14170;DHT22;63889;50.596;8.690;2023-12-20T05:41:29;6.40;99.90
14170;DHT22;63889;50.596;8.690;2023-12-20T05:43:54;6.50;99.90
14170;DHT22;63889;50.596;8.690;2023-12-20T05:46:20;6.50;99.90
14170;DHT22;63889;50.596;8.690;2023-12-20T05:48:46;6.50;99.90
14170;DHT22;63889;50.596;8.690;2023-12-20T05:51:12;6.50;99.90
14170;DHT22;63889;50.596;8.690;2023-12-20T05:53:38;6.60;99.90
14170;DHT22;63889;50.596;8.690;2023-12-20T05:56:04;6.50;99.90
14170;DHT22;63889;50.596;8.690;2023-12-20T05:58:30;6.50;99.90
14170;DHT22;63889;50.596;8.690;2023-12-20T06:00:55;6.40;99.90
14170;DHT22;63889;50.596;8.690;2023-12-20T06:03:21;6.40;99.90
14170;DHT22;63889;50.596;8.690;2023-12-20T06:05:46;6.30;99.90
14170;DHT22;63889;50.596;8.690;2023-12-20T06:08:12;6.30;99.90
14170;DHT22;63889;50.596;8.690;2023-12-20T06:10:37;6.30;99.90
14170;DHT22;63889;50.596;8.690;2023-12-20T06:13:03;6.30;99.90
14170;DHT22;63889;50.596;8.690;2023-12-20T06:15:30;6.30;99.90
14170;DHT22;63889;50.596;8.690;2023-12-20T06:17:55;6.40;99.90
14170;DHT22;63889;50.596;8.690;2023-12-20T06:20:21;6.20;99.90
14170;DHT22;63889;50.596;8.690;2023-12-20T06:22:46;6.00;99.90
14170;DHT22;63889;50.596;8.690;2023-12-20T06:25:12;5.80;99.90
14170;DHT22;63889;50.596;8.690;2023-12-20T06:27:37;5.90;99.90
14170;DHT22;63889;50.596;8.690;2023-12-20T06:30:03;5.90;99.90
14170;DHT22;63889;50.596;8.690;2023-12-20T06:32:29;5.80;99.90
14170;DHT22;63889;50.596;8.690;2023-12-20T06:34:55;5.80;99.90
14170;DHT22;63889;50.596;8.690;2023-12-20T06:37:21;5.80;99.90
14170;DHT22;63889;50.596;8.690;2023-12-20T06:39:46;5.90;99.90
14170;DHT22;63889;50.596;8.690;2023-12-20T06:42:13;5.90;99.90
14170;DHT22;63889;50.596;8.690;2023-12-20T06:44:38;6.00;99.90
14170;DHT22;63889;50.596;8.690;2023-12-20T06:47:04;6.10;99.90
14170;DHT22;63889;50.596;8.690;2023-12-20T06:49:30;6.20;99.90
14170;DHT22;63889;50.596;8.690;2023-12-20T06:51:55;6.30;99.90
14170;DHT22;63889;50.596;8.690;2023-12-20T06:54:21;6.10;99.90
14170;DHT22;63889;50.596;8.690;2023-12-20T06:56:46;6.00;99.90
14170;DHT22;63889;50.596;8.690;2023-12-20T06:59:12;6.00;99.90
14170;DHT22;63889;50.596;8.690;2023-12-20T07:01:37;6.00;99.90
14170;DHT22;63889;50.596;8.690;2023-12-20T07:04:03;5.90;99.90
14170;DHT22;63889;50.596;8.690;2023-12-20T07:06:29;5.90;99.90
14170;DHT22;63889;50.596;8.690;2023-12-20T07:08:54;6.00;99.90
14170;DHT22;63889;50.596;8.690;2023-12-20T07:11:20;5.90;99.90
14170;DHT22;63889;50.596;8.690;2023-12-20T07:13:45;6.00;99.90
14170;DHT22;63889;50.596;8.690;2023-12-20T07:16:11;6.00;99.90
14170;DHT22;63889;50.596;8.690;2023-12-20T07:18:37;6.20;99.90
14170;DHT22;63889;50.596;8.690;2023-12-20T07:21:03;6.30;99.90
14170;DHT22;63889;50.596;8.690;2023-12-20T07:23:28;6.40;99.90
14170;DHT22;63889;50.596;8.690;2023-12-20T07:25:54;6.40;99.90
14170;DHT22;63889;50.596;8.690;2023-12-20T07:28:20;6.30;99.90
14170;DHT22;63889;50.596;8.690;2023-12-20T07:30:45;6.20;99.90
14170;DHT22;63889;50.596;8.690;2023-12-20T07:33:11;6.30;99.90
14170;DHT22;63889;50.596;8.690;2023-12-20T07:35:37;6.20;99.90
14170;DHT22;63889;50.596;8.690;2023-12-20T07:38:03;6.30;99.90
14170;DHT22;63889;50.596;8.690;2023-12-20T07:40:29;6.40;99.90
14170;DHT22;63889;50.596;8.690;2023-12-20T07:42:54;6.50;99.90
14170;DHT22;63889;50.596;8.690;2023-12-20T07:45:20;6.50;99.90
14170;DHT22;63889;50.596;8.690;2023-12-20T07:47:45;6.50;99.90
14170;DHT22;63889;50.596;8.690;2023-12-20T07:50:11;6.50;99.90
14170;DHT22;63889;50.596;8.690;2023-12-20T07:52:37;6.60;99.90
14170;DHT22;63889;50.596;8.690;2023-12-20T07:55:02;6.60;99.90
14170;DHT22;63889;50.596;8.690;2023-12-20T07:57:29;6.60;99.90
14170;DHT22;63889;50.596;8.690;2023-12-20T07:59:56;6.50;99.90
14170;DHT22;63889;50.596;8.690;2023-12-20T08:02:21;6.50;99.90
14170;DHT22;63889;50.596;8.690;2023-12-20T08:04:47;6.40;99.90
14170;DHT22;63889;50.596;8.690;2023-12-20T08:07:12;6.50;99.90
14170;DHT22;63889;50.596;8.690;2023-12-20T08:09:38;6.50;99.90
14170;DHT22;63889;50.596;8.690;2023-12-20T08:12:04;6.40;99.90
14170;DHT22;63889;50.596;8.690;2023-12-20T08:14:29;6.50;99.90
14170;DHT22;63889;50.596;8.690;2023-12-20T08:16:55;6.40;99.90
14170;DHT22;63889;50.596;8.690;2023-12-20T08:19:20;6.40;99.90
14170;DHT22;63889;50.596;8.690;2023-12-20T08:21:46;6.40;99.90
14170;DHT22;63889;50.596;8.690;2023-12-20T08:24:11;6.50;99.90
14170;DHT22;63889;50.596;8.690;2023-12-20T08:26:37;6.40;99.90
14170;DHT22;63889;50.596;8.690;2023-12-20T08:29:02;6.50;99.90
14170;DHT22;63889;50.596;8.690;2023-12-20T08:31:28;6.50;99.90
14170;DHT22;63889;50.596;8.690;2023-12-20T08:33:54;6.50;99.90
14170;DHT22;63889;50.596;8.690;2023-12-20T08:36:20;6.50;99.90
14170;DHT22;63889;50.596;8.690;2023-12-20T08:38:47;6.50;99.90
14170;DHT22;63889;50.596;8.690;2023-12-20T08:41:13;6.50;99.90
14170;DHT22;63889;50.596;8.690;2023-12-20T08:43:38;6.50;99.90
14170;DHT22;63889;50.596;8.690;2023-12-20T08:46:08;6.50;99.90
14170;DHT22;63889;50.596;8.690;2023-12-20T08:48:35;6.40;99.90
14170;DHT22;63889;50.596;8.690;2023-12-20T08:51:00;6.40;99.90
14170;DHT22;63889;50.596;8.690;2023-12-20T08:53:26;6.40;99.90
14170;DHT22;63889;50.596;8.690;2023-12-20T08:55:52;6.40;99.90
14170;DHT22;63889;50.596;8.690;2023-12-20T08:58:17;6.40;99.90
14170;DHT22;63889;50.596;8.690;2023-12-20T09:00:43;6.40;99.90
14170;DHT22;63889;50.596;8.690;2023-12-20T09:03:09;6.40;99.90
14170;DHT22;63889;50.596;8.690;2023-12-20T09:05:34;6.40;99.90
14170;DHT22;63889;50.596;8.690;2023-12-20T09:08:00;6.40;99.90
14170;DHT22;63889;50.596;8.690;2023-12-20T09:10:26;6.40;99.90
14170;DHT22;63889;50.596;8.690;2023-12-20T09:12:52;6.30;99.90
14170;DHT22;63889;50.596;8.690;2023-12-20T09:15:23;6.20;99.90
14170;DHT22;63889;50.596;8.690;2023-12-20T09:17:48;6.20;99.90
14170;DHT22;63889;50.596;8.690;2023-12-20T09:20:14;6.20;99.90
14170;DHT22;63889;50.596;8.690;2023-12-20T09:22:39;6.20;99.90
14170;DHT22;63889;50.596;8.690;2023-12-20T09:25:07;6.30;99.90
14170;DHT22;63889;50.596;8.690;2023-12-20T09:27:33;6.40;99.90
14170;DHT22;63889;50.596;8.690;2023-12-20T09:29:59;6.30;99.90
14170;DHT22;63889;50.596;8.690;2023-12-20T09:32:24;6.30;99.90
14170;DHT22;63889;50.596;8.690;2023-12-20T09:34:50;6.30;99.90
14170;DHT22;63889;50.596;8.690;2023-12-20T09:37:15;6.30;99.90
14170;DHT22;63889;50.596;8.690;2023-12-20T09:39:41;6.30;99.90
14170;DHT22;63889;50.596;8.690;2023-12-20T09:42:07;6.30;99.90
14170;DHT22;63889;50.596;8.690;2023-12-20T09:44:33;6.30;99.90
14170;DHT22;63889;50.596;8.690;2023-12-20T09:47:03;6.30;99.90
14170;DHT22;63889;50.596;8.690;2023-12-20T09:49:30;6.40;99.90
14170;DHT22;63889;50.596;8.690;2023-12-20T09:51:56;6.40;99.90
14170;DHT22;63889;50.596;8.690;2023-12-20T09:54:23;6.50;99.90
14170;DHT22;63889;50.596;8.690;2023-12-20T09:56:49;6.50;99.90
14170;DHT22;63889;50.596;8.690;2023-12-20T09:59:15;6.50;99.90
14170;DHT22;63889;50.596;8.690;2023-12-20T10:01:41;6.50;99.90
14170;DHT22;63889;50.596;8.690;2023-12-20T10:04:09;6.50;99.90
14170;DHT22;63889;50.596;8.690;2023-12-20T10:06:41;6.50;99.90
14170;DHT22;63889;50.596;8.690;2023-12-20T10:09:06;6.50;99.90
14170;DHT22;63889;50.596;8.690;2023-12-20T10:11:32;6.40;99.90
14170;DHT22;63889;50.596;8.690;2023-12-20T10:14:01;6.40;99.90
14170;DHT22;63889;50.596;8.690;2023-12-20T10:16:27;6.40;99.90
14170;DHT22;63889;50.596;8.690;2023-12-20T10:18:54;6.50;99.90
14170;DHT22;63889;50.596;8.690;2023-12-20T10:21:19;6.50;99.90
14170;DHT22;63889;50.596;8.690;2023-12-20T10:23:45;6.60;99.90
14170;DHT22;63889;50.596;8.690;2023-12-20T10:26:22;6.60;99.90
14170;DHT22;63889;50.596;8.690;2023-12-20T10:28:53;6.60;99.90
14170;DHT22;63889;50.596;8.690;2023-12-20T10:31:32;6.60;99.90
14170;DHT22;63889;50.596;8.690;2023-12-20T10:33:58;6.70;99.90
14170;DHT22;63889;50.596;8.690;2023-12-20T10:36:30;6.50;99.90
14170;DHT22;63889;50.596;8.690;2023-12-20T10:38:56;6.50;99.90
14170;DHT22;63889;50.596;8.690;2023-12-20T10:41:30;6.50;99.90
14170;DHT22;63889;50.596;8.690;2023-12-20T10:44:00;6.50;99.90
14170;DHT22;63889;50.596;8.690;2023-12-20T10:46:27;6.50;99.90
14170;DHT22;63889;50.596;8.690;2023-12-20T10:48:54;6.50;99.90
14170;DHT22;63889;50.596;8.690;2023-12-20T10:51:21;6.50;99.90
14170;DHT22;63889;50.596;8.690;2023-12-20T10:53:50;6.50;99.90
14170;DHT22;63889;50.596;8.690;2023-12-20T10:56:17;6.60;99.90
14170;DHT22;63889;50.596;8.690;2023-12-20T10:58:43;6.60;99.90
14170;DHT22;63889;50.596;8.690;2023-12-20T11:01:13;6.70;99.90
14170;DHT22;63889;50.596;8.690;2023-12-20T11:03:44;6.80;99.90
14170;DHT22;63889;50.596;8.690;2023-12-20T11:06:14;6.80;99.90
14170;DHT22;63889;50.596;8.690;2023-12-20T11:11:42;6.70;99.90
14170;DHT22;63889;50.596;8.690;2023-12-20T11:14:20;6.60;99.90
14170;DHT22;63889;50.596;8.690;2023-12-20T11:16:48;6.70;99.90
14170;DHT22;63889;50.596;8.690;2023-12-20T11:19:13;6.70;99.90
14170;DHT22;63889;50.596;8.690;2023-12-20T11:21:40;6.70;99.90
14170;DHT22;63889;50.596;8.690;2023-12-20T11:24:06;6.70;99.90
14170;DHT22;63889;50.596;8.690;2023-12-20T11:26:31;6.70;99.90
14170;DHT22;63889;50.596;8.690;2023-12-20T11:32:27;6.70;99.90
14170;DHT22;63889;50.596;8.690;2023-12-20T11:34:51;6.80;99.90
14170;DHT22;63889;50.596;8.690;2023-12-20T11:37:19;6.70;99.90
14170;DHT22;63889;50.596;8.690;2023-12-20T11:39:45;6.70;99.90
14170;DHT22;63889;50.596;8.690;2023-12-20T11:42:11;6.80;99.90
14170;DHT22;63889;50.596;8.690;2023-12-20T11:44:37;6.80;99.90
14170;DHT22;63889;50.596;8.690;2023-12-20T11:47:03;6.80;99.90
14170;DHT22;63889;50.596;8.690;2023-12-20T11:49:28;6.80;99.90
14170;DHT22;63889;50.596;8.690;2023-12-20T11:51:56;6.80;99.90
14170;DHT22;63889;50.596;8.690;2023-12-20T11:54:22;6.80;99.90
14170;DHT22;63889;50.596;8.690;2023-12-20T11:56:48;6.80;99.90
14170;DHT22;63889;50.596;8.690;2023-12-20T11:59:13;6.80;99.90
14170;DHT22;63889;50.596;8.690;2023-12-20T12:01:39;6.80;99.90
14170;DHT22;63889;50.596;8.690;2023-12-20T12:04:07;6.70;99.90
14170;DHT22;63889;50.596;8.690;2023-12-20T12:06:33;6.70;99.90
14170;DHT22;63889;50.596;8.690;2023-12-20T12:08:59;6.70;99.90
14170;DHT22;63889;50.596;8.690;2023-12-20T12:11:24;6.70;99.90
14170;DHT22;63889;50.596;8.690;2023-12-20T12:13:50;6.70;99.90
14170;DHT22;63889;50.596;8.690;2023-12-20T12:16:22;6.80;99.90
14170;DHT22;63889;50.596;8.690;2023-12-20T12:18:57;6.80;99.90
14170;DHT22;63889;50.596;8.690;2023-12-20T12:21:23;6.80;99.90
14170;DHT22;63889;50.596;8.690;2023-12-20T12:23:48;6.80;99.90
14170;DHT22;63889;50.596;8.690;2023-12-20T12:26:14;6.90;99.90
14170;DHT22;63889;50.596;8.690;2023-12-20T12:28:40;6.80;99.90
14170;DHT22;63889;50.596;8.690;2023-12-20T12:31:07;6.80;99.90
14170;DHT22;63889;50.596;8.690;2023-12-20T12:33:32;6.80;99.90
14170;DHT22;63889;50.596;8.690;2023-12-20T12:35:58;6.90;99.90
14170;DHT22;63889;50.596;8.690;2023-12-20T12:38:25;7.00;99.90
14170;DHT22;63889;50.596;8.690;2023-12-20T12:40:50;7.00;99.90
14170;DHT22;63889;50.596;8.690;2023-12-20T12:43:18;7.00;99.90
14170;DHT22;63889;50.596;8.690;2023-12-20T12:48:34;7.00;99.90
14170;DHT22;63889;50.596;8.690;2023-12-20T12:51:00;7.00;99.90
14170;DHT22;63889;50.596;8.690;2023-12-20T12:53:26;7.00;99.90
14170;DHT22;63889;50.596;8.690;2023-12-20T12:55:52;7.00;99.90
14170;DHT22;63889;50.596;8.690;2023-12-20T12:58:19;6.90;99.90
14170;DHT22;63889;50.596;8.690;2023-12-20T13:00:45;6.80;99.90
14170;DHT22;63889;50.596;8.690;2023-12-20T13:03:10;6.90;99.90
14170;DHT22;63889;50.596;8.690;2023-12-20T13:05:36;6.90;99.90
14170;DHT22;63889;50.596;8.690;2023-12-20T13:08:01;6.90;99.90
14170;DHT22;63889;50.596;8.690;2023-12-20T13:10:27;6.90;99.90
14170;DHT22;63889;50.596;8.690;2023-12-20T13:12:52;6.80;99.90
14170;DHT22;63889;50.596;8.690;2023-12-20T13:15:18;6.90;99.90
14170;DHT22;63889;50.596;8.690;2023-12-20T13:17:43;6.80;99.90
14170;DHT22;63889;50.596;8.690;2023-12-20T13:20:11;6.80;99.90
14170;DHT22;63889;50.596;8.690;2023-12-20T13:22:37;6.80;99.90
14170;DHT22;63889;50.596;8.690;2023-12-20T13:25:02;6.70;99.90
14170;DHT22;63889;50.596;8.690;2023-12-20T13:27:28;6.70;99.90
14170;DHT22;63889;50.596;8.690;2023-12-20T13:29:54;6.70;99.90
14170;DHT22;63889;50.596;8.690;2023-12-20T13:32:19;6.70;99.90
14170;DHT22;63889;50.596;8.690;2023-12-20T13:34:45;6.80;99.90
14170;DHT22;63889;50.596;8.690;2023-12-20T13:37:11;6.80;99.90
14170;DHT22;63889;50.596;8.690;2023-12-20T13:39:36;6.80;99.90
14170;DHT22;63889;50.596;8.690;2023-12-20T13:42:02;6.80;99.90
14170;DHT22;63889;50.596;8.690;2023-12-20T13:44:27;6.70;99.90
14170;DHT22;63889;50.596;8.690;2023-12-20T13:46:53;6.80;99.90
14170;DHT22;63889;50.596;8.690;2023-12-20T13:49:18;6.80;99.90
14170;DHT22;63889;50.596;8.690;2023-12-20T13:51:44;6.80;99.90
14170;DHT22;63889;50.596;8.690;2023-12-20T13:54:09;6.80;99.90
14170;DHT22;63889;50.596;8.690;2023-12-20T13:56:36;6.80;99.90
14170;DHT22;63889;50.596;8.690;2023-12-20T13:59:01;6.80;99.90
14170;DHT22;63889;50.596;8.690;2023-12-20T14:01:27;6.80;99.90
14170;DHT22;63889;50.596;8.690;2023-12-20T14:03:52;6.90;99.90
14170;DHT22;63889;50.596;8.690;2023-12-20T14:06:18;6.90;99.90
14170;DHT22;63889;50.596;8.690;2023-12-20T14:08:44;6.90;99.90
14170;DHT22;63889;50.596;8.690;2023-12-20T14:11:09;6.80;99.90
14170;DHT22;63889;50.596;8.690;2023-12-20T14:13:36;6.80;99.90
14170;DHT22;63889;50.596;8.690;2023-12-20T14:16:01;6.80;99.90
14170;DHT22;63889;50.596;8.690;2023-12-20T14:18:29;6.90;99.90
14170;DHT22;63889;50.596;8.690;2023-12-20T14:20:55;6.90;99.90
14170;DHT22;63889;50.596;8.690;2023-12-20T14:23:21;7.00;99.90
14170;DHT22;63889;50.596;8.690;2023-12-20T14:25:47;7.00;99.90
14170;DHT22;63889;50.596;8.690;2023-12-20T14:28:14;6.90;99.90
14170;DHT22;63889;50.596;8.690;2023-12-20T14:30:40;6.90;99.90
14170;DHT22;63889;50.596;8.690;2023-12-20T14:33:05;6.90;99.90
14170;DHT22;63889;50.596;8.690;2023-12-20T14:35:31;6.80;99.90
14170;DHT22;63889;50.596;8.690;2023-12-20T14:37:57;6.80;99.90
14170;DHT22;63889;50.596;8.690;2023-12-20T14:40:23;6.80;99.90
14170;DHT22;63889;50.596;8.690;2023-12-20T14:42:48;6.90;99.90
14170;DHT22;63889;50.596;8.690;2023-12-20T14:45:14;6.80;99.90
14170;DHT22;63889;50.596;8.690;2023-12-20T14:47:41;6.80;99.90
14170;DHT22;63889;50.596;8.690;2023-12-20T14:50:07;6.90;99.90
14170;DHT22;63889;50.596;8.690;2023-12-20T14:52:33;6.90;99.90
14170;DHT22;63889;50.596;8.690;2023-12-20T14:55:02;6.80;99.90
14170;DHT22;63889;50.596;8.690;2023-12-20T14:57:28;6.80;99.90
14170;DHT22;63889;50.596;8.690;2023-12-20T14:59:56;6.80;99.90
14170;DHT22;63889;50.596;8.690;2023-12-20T15:02:21;6.80;99.90
14170;DHT22;63889;50.596;8.690;2023-12-20T15:04:47;6.90;99.90
14170;DHT22;63889;50.596;8.690;2023-12-20T15:07:13;6.90;99.90
14170;DHT22;63889;50.596;8.690;2023-12-20T15:09:38;6.90;99.90
14170;DHT22;63889;50.596;8.690;2023-12-20T15:12:04;6.90;99.90
14170;DHT22;63889;50.596;8.690;2023-12-20T15:14:29;6.90;99.90
14170;DHT22;63889;50.596;8.690;2023-12-20T15:16:55;7.00;99.90
14170;DHT22;63889;50.596;8.690;2023-12-20T15:19:21;7.00;99.90
14170;DHT22;63889;50.596;8.690;2023-12-20T15:21:47;6.90;99.90
14170;DHT22;63889;50.596;8.690;2023-12-20T15:24:13;7.00;99.90
14170;DHT22;63889;50.596;8.690;2023-12-20T15:26:41;6.90;99.90
14170;DHT22;63889;50.596;8.690;2023-12-20T15:29:07;7.00;99.90
14170;DHT22;63889;50.596;8.690;2023-12-20T15:31:34;6.90;99.90
14170;DHT22;63889;50.596;8.690;2023-12-20T15:34:00;6.90;99.90
14170;DHT22;63889;50.596;8.690;2023-12-20T15:36:26;6.90;99.90
14170;DHT22;63889;50.596;8.690;2023-12-20T15:38:51;6.90;99.90
14170;DHT22;63889;50.596;8.690;2023-12-20T15:41:21;6.80;99.90
14170;DHT22;63889;50.596;8.690;2023-12-20T15:43:47;6.80;99.90
14170;DHT22;63889;50.596;8.690;2023-12-20T15:46:13;6.90;99.90
14170;DHT22;63889;50.596;8.690;2023-12-20T15:48:39;6.80;99.90